createdAt,value
2023-01-21T00:00:39.289Z,10.30
2023-01-21T00:01:41.500Z,10.63
2023-01-21T00:02:43.742Z,10.50
2023-01-21T00:03:46.439Z,10.57
2023-01-21T00:04:48.823Z,10.53
2023-01-21T00:05:51.156Z,11.10
2023-01-21T00:06:53.352Z,11.03
2023-01-21T00:07:55.563Z,11.10
2023-01-21T00:08:59.430Z,11.10
2023-01-21T00:10:02.421Z,11.17
2023-01-21T00:11:15.204Z,11.17
2023-01-21T00:12:17.417Z,11.13
2023-01-21T00:13:19.698Z,11.30
2023-01-21T00:14:21.924Z,11.07
2023-01-21T00:15:24.132Z,11.27
2023-01-21T00:16:26.280Z,11.00
2023-01-21T00:17:35.388Z,11.07
2023-01-21T00:18:37.574Z,11.40
2023-01-21T00:19:40.009Z,11.93
2023-01-21T00:20:42.269Z,11.43
2023-01-21T00:21:46.769Z,11.03
2023-01-21T00:22:49.052Z,11.00
2023-01-21T00:23:51.229Z,10.53
2023-01-21T00:24:53.440Z,11.23
2023-01-21T00:26:00.870Z,10.43
2023-01-21T00:27:03.100Z,10.53
2023-01-21T00:28:05.619Z,11.10
2023-01-21T00:29:07.932Z,10.97
2023-01-21T00:30:10.889Z,10.70
2023-01-21T00:31:13.182Z,10.30
2023-01-21T00:32:15.433Z,9.77
2023-01-21T00:33:19.858Z,10.47
2023-01-21T00:34:24.537Z,10.33
2023-01-21T00:35:26.751Z,9.73
2023-01-21T00:36:29.886Z,10.37
2023-01-21T00:37:32.038Z,10.23
2023-01-21T00:38:34.312Z,9.97
2023-01-21T00:39:36.560Z,9.77
2023-01-21T00:40:38.813Z,9.60
2023-01-21T00:41:41.134Z,9.80
2023-01-21T00:42:43.368Z,9.70
2023-01-21T00:43:45.596Z,10.33
2023-01-21T00:44:48.597Z,9.87
2023-01-21T00:45:50.790Z,10.27
2023-01-21T00:46:53.808Z,10.20
2023-01-21T00:47:56.035Z,9.80
2023-01-21T00:48:58.212Z,9.83
2023-01-21T00:50:00.391Z,10.63
2023-01-21T00:51:06.035Z,11.20
2023-01-21T00:52:08.322Z,10.83
2023-01-21T00:53:10.803Z,11.13
2023-01-21T00:54:13.020Z,10.77
2023-01-21T00:55:18.207Z,10.53
2023-01-21T00:56:20.646Z,10.30
2023-01-21T00:57:23.028Z,10.73
2023-01-21T00:58:25.365Z,10.97
2023-01-21T00:59:28.392Z,10.57
2023-01-21T01:00:30.588Z,10.57
2023-01-21T01:01:37.289Z,11.47
2023-01-21T01:02:41.890Z,10.93
2023-01-21T01:03:45.300Z,10.73
2023-01-21T01:04:47.531Z,10.90
2023-01-21T01:05:49.712Z,10.50
2023-01-21T01:06:54.679Z,10.70
2023-01-21T01:07:56.837Z,11.33
2023-01-21T01:08:59.255Z,10.90
2023-01-21T01:10:01.497Z,12.03
2023-01-21T01:11:06.823Z,12.03
2023-01-21T01:12:09.589Z,11.90
2023-01-21T01:13:11.815Z,11.63
2023-01-21T01:14:16.998Z,12.20
2023-01-21T01:15:19.597Z,12.60
2023-01-21T01:16:22.817Z,12.90
2023-01-21T01:17:25.030Z,12.73
2023-01-21T01:18:28.444Z,12.67
2023-01-21T01:19:30.633Z,11.53
2023-01-21T01:20:32.810Z,12.23
2023-01-21T01:25:42.160Z,11.37
2023-01-21T01:26:44.370Z,11.97
2023-01-21T01:27:46.545Z,12.80
2023-01-21T01:28:49.759Z,11.73
2023-01-21T01:29:51.987Z,11.50
2023-01-21T01:30:55.367Z,12.30
2023-01-21T01:31:57.678Z,12.50
2023-01-21T01:33:00.157Z,12.97
2023-01-21T01:34:02.389Z,12.57
2023-01-21T01:35:05.190Z,11.87
2023-01-21T01:36:12.605Z,12.40
2023-01-21T01:37:14.784Z,12.50
2023-01-21T01:38:22.721Z,12.47
2023-01-21T01:39:27.351Z,12.43
2023-01-21T01:40:33.003Z,11.80
2023-01-21T01:41:35.553Z,12.10
2023-01-21T01:42:37.820Z,12.37
2023-01-21T01:43:59.255Z,12.20
2023-01-21T01:45:24.102Z,13.07
2023-01-21T01:46:30.010Z,11.80
2023-01-21T01:47:42.625Z,12.23
2023-01-21T01:48:48.852Z,12.13
2023-01-21T01:49:54.199Z,12.37
2023-01-21T01:51:00.344Z,11.97
2023-01-21T01:52:06.277Z,12.33
2023-01-21T01:53:11.143Z,12.80
2023-01-21T01:54:16.551Z,12.73
2023-01-21T01:55:18.847Z,12.17
2023-01-21T01:56:21.743Z,13.50
2023-01-21T01:57:34.308Z,14.03
2023-01-21T01:58:37.858Z,12.73
2023-01-21T01:59:41.042Z,13.67
2023-01-21T02:00:45.957Z,13.63
2023-01-21T02:01:48.530Z,13.40
2023-01-21T02:03:09.778Z,13.07
2023-01-21T02:04:17.191Z,13.07
2023-01-21T02:05:22.209Z,14.43
2023-01-21T02:06:24.371Z,13.53
2023-01-21T02:07:29.039Z,13.10
2023-01-21T02:08:33.391Z,12.53
2023-01-21T02:09:38.644Z,13.50
2023-01-21T02:10:42.602Z,13.40
2023-01-21T02:11:47.764Z,13.83
2023-01-21T02:12:50.041Z,13.37
2023-01-21T02:13:56.983Z,13.33
2023-01-21T02:14:59.370Z,13.73
2023-01-21T02:16:41.153Z,13.77
2023-01-21T02:17:57.311Z,13.37
2023-01-21T02:19:21.209Z,13.03
2023-01-21T02:20:57.932Z,13.00
2023-01-21T02:22:19.143Z,12.40
2023-01-21T02:23:59.284Z,12.63
2023-01-21T02:25:32.579Z,12.60
2023-01-21T02:26:56.014Z,12.87
2023-01-21T02:28:26.936Z,12.03
2023-01-21T02:30:00.263Z,12.37
2023-01-21T02:31:30.248Z,11.33
2023-01-21T02:32:47.084Z,10.90
2023-01-21T02:34:14.621Z,10.20
2023-01-21T02:35:21.791Z,10.83
2023-01-21T02:36:37.817Z,10.50
2023-01-21T02:37:51.962Z,10.00
2023-01-21T02:39:09.273Z,10.50
2023-01-21T02:40:36.810Z,9.70
2023-01-21T02:41:59.208Z,10.10
2023-01-21T02:43:41.481Z,10.37
2023-01-21T02:45:02.040Z,9.93
2023-01-21T02:46:16.501Z,10.03
2023-01-21T02:47:31.726Z,10.37
2023-01-21T02:48:42.535Z,9.77
2023-01-21T02:49:46.914Z,9.63
2023-01-21T02:50:53.854Z,9.67
2023-01-21T02:51:56.048Z,9.67
2023-01-21T02:53:00.539Z,9.63
2023-01-21T02:54:43.490Z,9.00
2023-01-21T02:55:48.427Z,8.83
2023-01-21T02:56:50.626Z,9.33
2023-01-21T02:57:58.062Z,8.80
2023-01-21T02:59:03.784Z,9.33
2023-01-21T03:00:20.545Z,8.57
2023-01-21T03:01:49.739Z,8.10
2023-01-21T03:03:01.190Z,7.77
2023-01-21T03:04:26.938Z,7.80
2023-01-21T03:05:59.287Z,8.00
2023-01-21T03:07:08.280Z,7.53
2023-01-21T03:08:21.095Z,7.30
2023-01-21T03:09:29.932Z,7.03
2023-01-21T03:10:48.848Z,6.73
2023-01-21T03:12:01.324Z,7.27
2023-01-21T03:13:57.433Z,6.70
2023-01-21T03:15:27.841Z,6.53
2023-01-21T03:17:02.241Z,6.47
2023-01-21T03:18:31.301Z,6.83
2023-01-21T03:20:06.935Z,7.40
2023-01-21T03:21:24.147Z,7.20
2023-01-21T03:22:31.525Z,7.83
2023-01-21T03:23:39.019Z,8.03
2023-01-21T03:24:43.802Z,8.63
2023-01-21T03:25:47.241Z,8.50
2023-01-21T03:26:52.619Z,8.17
2023-01-21T03:27:56.611Z,8.90
2023-01-21T03:29:03.649Z,8.03
2023-01-21T03:30:13.685Z,8.07
2023-01-21T03:31:30.374Z,8.53
2023-01-21T03:32:38.040Z,8.40
2023-01-21T03:33:46.829Z,7.73
2023-01-21T03:34:53.761Z,8.20
2023-01-21T03:35:58.002Z,8.53
2023-01-21T03:37:07.853Z,8.83
2023-01-21T03:38:12.721Z,8.47
2023-01-21T03:39:42.587Z,8.63
2023-01-21T03:41:08.311Z,7.97
2023-01-21T03:42:10.979Z,7.43
2023-01-21T03:43:13.181Z,7.87
2023-01-21T03:44:15.396Z,8.20
2023-01-21T03:45:26.698Z,8.87
2023-01-21T03:47:07.463Z,7.70
2023-01-21T03:48:26.550Z,8.53
2023-01-21T03:49:35.014Z,8.17
2023-01-21T03:50:50.888Z,8.73
2023-01-21T03:51:57.189Z,8.77
2023-01-21T03:52:59.493Z,9.00
2023-01-21T03:54:01.698Z,8.80
2023-01-21T03:55:04.885Z,8.73
2023-01-21T03:56:07.358Z,8.83
2023-01-21T03:57:09.538Z,8.70
2023-01-21T03:58:11.731Z,9.60
2023-01-21T03:59:13.902Z,9.00
2023-01-21T04:00:17.029Z,9.33
2023-01-21T04:01:22.401Z,9.33
2023-01-21T04:02:24.710Z,9.30
2023-01-21T04:03:26.940Z,9.30
2023-01-21T04:04:29.138Z,8.70
2023-01-21T04:05:31.301Z,8.97
2023-01-21T04:06:33.688Z,9.10
2023-01-21T04:07:38.915Z,8.83
2023-01-21T04:08:41.211Z,8.77
2023-01-21T04:09:46.772Z,8.70
2023-01-21T04:10:48.999Z,9.30
2023-01-21T04:11:51.190Z,8.90
2023-01-21T04:12:53.348Z,8.90
2023-01-21T04:13:55.578Z,8.70
2023-01-21T04:14:58.351Z,9.57
2023-01-21T04:16:00.556Z,9.10
2023-01-21T04:17:04.385Z,8.63
2023-01-21T04:18:06.828Z,8.70
2023-01-21T04:19:09.144Z,8.07
2023-01-21T04:20:12.062Z,8.30
2023-01-21T04:21:14.620Z,8.17
2023-01-21T04:22:16.869Z,8.20
2023-01-21T04:23:19.135Z,8.30
2023-01-21T04:24:21.313Z,8.03
2023-01-21T04:25:23.481Z,8.80
2023-01-21T04:26:25.686Z,8.67
2023-01-21T04:27:27.892Z,9.03
2023-01-21T04:28:30.069Z,8.93
2023-01-21T04:29:32.246Z,9.03
2023-01-21T04:30:39.388Z,9.20
2023-01-21T04:31:41.569Z,8.70
2023-01-21T04:32:43.835Z,9.03
2023-01-21T04:33:46.066Z,9.27
2023-01-21T04:34:48.226Z,9.20
2023-01-21T04:35:50.393Z,9.83
2023-01-21T04:36:52.595Z,9.57
2023-01-21T04:37:54.767Z,9.60
2023-01-21T04:39:00.008Z,9.73
2023-01-21T04:40:02.323Z,10.50
2023-01-21T04:41:04.606Z,10.47
2023-01-21T04:42:06.803Z,9.83
2023-01-21T04:43:09.079Z,10.07
2023-01-21T04:44:14.147Z,10.37
2023-01-21T04:45:19.265Z,10.13
2023-01-21T04:46:21.461Z,10.37
2023-01-21T04:47:23.725Z,10.40
2023-01-21T04:48:25.897Z,10.07
2023-01-21T04:49:31.585Z,10.27
2023-01-21T04:50:33.739Z,9.87
2023-01-21T04:51:35.913Z,9.93
2023-01-21T04:52:38.960Z,9.93
2023-01-21T04:53:41.118Z,10.10
2023-01-21T04:54:43.621Z,10.37
2023-01-21T04:55:45.816Z,9.83
2023-01-21T04:56:48.061Z,9.67
2023-01-21T04:57:50.227Z,10.00
2023-01-21T04:58:52.454Z,9.90
2023-01-21T04:59:54.636Z,9.30
2023-01-21T05:00:56.844Z,9.63
2023-01-21T05:01:59.058Z,9.17
2023-01-21T05:03:01.292Z,9.50
2023-01-21T05:04:03.727Z,9.53
2023-01-21T05:05:06.494Z,9.23
2023-01-21T05:06:08.737Z,9.07
2023-01-21T05:07:11.988Z,9.20
2023-01-21T05:08:16.832Z,9.40
2023-01-21T05:09:19.038Z,9.03
2023-01-21T05:10:24.291Z,9.90
2023-01-21T05:11:26.478Z,9.67
2023-01-21T05:12:34.404Z,9.60
2023-01-21T05:13:36.603Z,9.60
2023-01-21T05:14:38.856Z,9.63
2023-01-21T05:15:41.112Z,9.90
2023-01-21T05:16:46.244Z,9.33
2023-01-21T05:17:48.435Z,9.73
2023-01-21T05:18:50.623Z,9.60
2023-01-21T05:19:52.776Z,9.67
2023-01-21T05:20:55.896Z,10.37
2023-01-21T05:21:58.059Z,10.00
2023-01-21T05:23:00.325Z,10.13
2023-01-21T05:24:02.706Z,9.93
2023-01-21T05:25:05.568Z,10.10
2023-01-21T05:26:10.499Z,9.17
2023-01-21T05:27:12.672Z,10.30
2023-01-21T05:28:14.877Z,9.97
2023-01-21T05:29:17.230Z,10.30
2023-01-21T05:30:20.156Z,10.33
2023-01-21T05:31:22.386Z,10.43
2023-01-21T05:32:24.880Z,10.50
2023-01-21T05:33:32.045Z,10.23
2023-01-21T05:34:34.231Z,10.23
2023-01-21T05:35:36.560Z,10.43
2023-01-21T05:36:39.622Z,9.67
2023-01-21T05:37:43.655Z,10.40
2023-01-21T05:38:45.857Z,10.77
2023-01-21T05:39:48.101Z,10.20
2023-01-21T05:40:50.362Z,10.80
2023-01-21T05:41:52.574Z,10.47
2023-01-21T05:42:54.809Z,10.50
2023-01-21T05:43:57.014Z,10.87
2023-01-21T05:45:01.539Z,10.33
2023-01-21T05:46:04.075Z,10.57
2023-01-21T05:47:08.779Z,11.07
2023-01-21T05:48:10.968Z,11.07
2023-01-21T05:49:13.392Z,11.00
2023-01-21T05:50:18.116Z,11.33
2023-01-21T05:51:20.531Z,10.60
2023-01-21T05:52:22.722Z,10.23
2023-01-21T05:53:26.416Z,11.40
2023-01-21T05:54:28.568Z,10.80
2023-01-21T05:55:30.864Z,10.57
2023-01-21T05:56:33.070Z,10.80
2023-01-21T05:57:35.374Z,10.50
2023-01-21T05:58:37.601Z,10.27
2023-01-21T05:59:39.762Z,11.10
2023-01-21T06:00:49.584Z,10.33
2023-01-21T06:01:51.830Z,10.27
2023-01-21T06:02:54.071Z,10.67
2023-01-21T06:03:56.340Z,10.20
2023-01-21T06:04:58.580Z,10.37
2023-01-21T06:06:00.787Z,10.07
2023-01-21T06:07:06.070Z,10.60
2023-01-21T06:08:09.218Z,10.57
2023-01-21T06:09:11.450Z,11.20
2023-01-21T06:10:13.737Z,10.53
2023-01-21T06:11:15.919Z,12.27
2023-01-21T06:12:18.127Z,10.57
2023-01-21T06:13:26.670Z,11.07
2023-01-21T06:14:29.087Z,10.63
2023-01-21T06:15:33.762Z,11.03
2023-01-21T06:16:36.019Z,10.83
2023-01-21T06:17:41.051Z,10.87
2023-01-21T06:18:43.277Z,11.23
2023-01-21T06:19:45.449Z,11.20
2023-01-21T06:20:48.639Z,11.40
2023-01-21T06:21:52.463Z,11.93
2023-01-21T06:22:54.690Z,11.77
2023-01-21T06:23:57.581Z,11.43
2023-01-21T06:24:59.778Z,11.20
2023-01-21T06:26:02.509Z,12.10
2023-01-21T06:27:07.013Z,11.20
2023-01-21T06:28:12.358Z,11.80
2023-01-21T06:29:17.404Z,11.80
2023-01-21T06:30:22.176Z,11.83
2023-01-21T06:31:24.717Z,12.07
2023-01-21T06:32:27.011Z,10.90
2023-01-21T06:33:29.212Z,11.63
2023-01-21T06:34:31.414Z,10.63
2023-01-21T06:35:33.692Z,10.47
2023-01-21T06:36:38.744Z,10.60
2023-01-21T06:37:41.038Z,10.80
2023-01-21T06:38:43.235Z,10.07
2023-01-21T06:39:45.431Z,10.37
2023-01-21T06:40:47.592Z,10.43
2023-01-21T06:41:49.765Z,9.83
2023-01-21T06:42:51.920Z,10.53
2023-01-21T06:43:54.117Z,9.30
2023-01-21T06:44:56.314Z,9.73
2023-01-21T06:45:58.511Z,9.50
2023-01-21T06:47:01.689Z,9.53
2023-01-21T06:48:04.479Z,9.30
2023-01-21T06:49:06.671Z,10.27
2023-01-21T06:50:11.407Z,10.13
2023-01-21T06:51:13.631Z,9.37
2023-01-21T06:52:15.813Z,9.40
2023-01-21T06:53:18.555Z,9.30
2023-01-21T06:54:20.694Z,9.13
2023-01-21T06:55:23.030Z,9.37
2023-01-21T06:56:27.840Z,9.40
2023-01-21T06:57:30.824Z,9.33
2023-01-21T06:58:32.999Z,9.60
2023-01-21T06:59:35.309Z,9.33
2023-01-21T07:00:37.592Z,9.53
2023-01-21T07:01:39.769Z,9.80
2023-01-21T07:02:41.995Z,9.30
2023-01-21T07:03:44.498Z,9.60
2023-01-21T07:04:48.415Z,9.27
2023-01-21T07:05:50.651Z,9.07
2023-01-21T07:06:52.805Z,9.60
2023-01-21T07:07:55.951Z,9.07
2023-01-21T07:08:58.223Z,9.10
2023-01-21T07:10:00.454Z,9.50
2023-01-21T07:11:04.383Z,9.53
2023-01-21T07:12:06.788Z,9.30
2023-01-21T07:13:08.965Z,9.40
2023-01-21T07:14:11.223Z,8.80
2023-01-21T07:15:13.696Z,9.40
2023-01-21T07:16:15.909Z,9.07
2023-01-21T07:17:18.154Z,8.90
2023-01-21T07:18:20.396Z,9.30
2023-01-21T07:19:22.724Z,9.50
2023-01-21T07:20:26.063Z,9.07
2023-01-21T07:21:28.285Z,8.67
2023-01-21T07:22:30.569Z,9.40
2023-01-21T07:23:32.736Z,8.77
2023-01-21T07:24:34.914Z,9.17
2023-01-21T07:25:39.846Z,8.50
2023-01-21T07:26:43.628Z,9.23
2023-01-21T07:27:45.813Z,8.87
2023-01-21T07:28:48.028Z,9.27
2023-01-21T07:29:50.219Z,8.83
2023-01-21T07:30:55.124Z,9.30
2023-01-21T07:31:57.451Z,8.80
2023-01-21T07:33:06.122Z,9.40
2023-01-21T07:34:08.363Z,9.03
2023-01-21T07:35:10.749Z,8.60
2023-01-21T07:36:12.942Z,9.00
2023-01-21T07:37:15.159Z,9.63
2023-01-21T07:38:17.609Z,8.77
2023-01-21T07:39:19.778Z,8.77
2023-01-21T07:40:22.033Z,9.40
2023-01-21T07:41:24.359Z,9.27
2023-01-21T07:42:26.863Z,9.20
2023-01-21T07:43:29.070Z,9.77
2023-01-21T07:44:31.338Z,9.37
2023-01-21T07:45:33.572Z,9.90
2023-01-21T07:46:36.280Z,8.80
2023-01-21T07:47:38.572Z,8.73
2023-01-21T07:48:40.727Z,9.40
2023-01-21T07:49:45.571Z,9.27
2023-01-21T07:50:47.876Z,8.57
2023-01-21T07:51:50.151Z,8.83
2023-01-21T07:52:55.549Z,9.00
2023-01-21T07:53:58.688Z,9.10
2023-01-21T07:55:01.854Z,9.20
2023-01-21T07:56:09.751Z,8.90
2023-01-21T07:57:11.984Z,8.77
2023-01-21T07:58:14.219Z,9.27
2023-01-21T07:59:16.381Z,9.23
2023-01-21T08:00:19.057Z,9.67
2023-01-21T08:01:23.255Z,9.23
2023-01-21T08:02:27.499Z,9.70
2023-01-21T08:03:30.077Z,9.13
2023-01-21T08:04:32.267Z,9.27
2023-01-21T08:05:34.435Z,9.63
2023-01-21T08:06:41.560Z,9.50
2023-01-21T08:07:43.780Z,9.53
2023-01-21T08:08:45.961Z,9.53
2023-01-21T08:09:48.131Z,9.80
2023-01-21T08:10:57.291Z,9.83
2023-01-21T08:12:02.653Z,9.30
2023-01-21T08:13:04.873Z,9.40
2023-01-21T08:14:07.096Z,9.63
2023-01-21T08:15:10.191Z,9.50
2023-01-21T08:16:13.797Z,9.73
2023-01-21T08:17:16.001Z,9.97
2023-01-21T08:18:19.350Z,10.97
2023-01-21T08:19:21.561Z,9.80
2023-01-21T08:20:26.428Z,9.77
2023-01-21T08:21:28.585Z,10.17
2023-01-21T08:22:30.780Z,9.87
2023-01-21T08:23:33.041Z,10.00
2023-01-21T08:24:35.258Z,10.03
2023-01-21T08:25:39.686Z,10.23
2023-01-21T08:26:41.853Z,10.23
2023-01-21T08:27:44.032Z,10.07
2023-01-21T08:28:46.255Z,10.23
2023-01-21T08:29:48.706Z,9.73
2023-01-21T08:30:50.990Z,10.33
2023-01-21T08:31:53.687Z,10.80
2023-01-21T08:32:55.902Z,10.07
2023-01-21T08:33:59.100Z,9.60
2023-01-21T08:35:01.304Z,9.60
2023-01-21T08:36:06.209Z,9.73
2023-01-21T08:37:08.405Z,9.93
2023-01-21T08:38:10.638Z,8.90
2023-01-21T08:39:15.070Z,9.67
2023-01-21T08:40:17.268Z,10.07
2023-01-21T08:41:19.583Z,9.87
2023-01-21T08:42:21.821Z,9.70
2023-01-21T08:43:25.046Z,10.27
2023-01-21T08:44:27.299Z,9.33
2023-01-21T08:45:29.956Z,9.87
2023-01-21T08:46:32.165Z,9.60
2023-01-21T08:47:34.387Z,9.83
2023-01-21T08:48:38.401Z,10.47
2023-01-21T08:49:40.600Z,10.10
2023-01-21T08:50:43.071Z,10.07
2023-01-21T08:51:45.263Z,9.57
2023-01-21T08:52:55.291Z,9.70
2023-01-21T08:53:57.698Z,9.40
2023-01-21T08:55:07.167Z,8.83
2023-01-21T08:56:09.341Z,9.10
2023-01-21T08:57:12.485Z,9.13
2023-01-21T08:58:14.757Z,8.83
2023-01-21T08:59:17.165Z,8.63
2023-01-21T09:00:20.317Z,9.50
2023-01-21T09:01:22.718Z,9.13
2023-01-21T09:02:26.081Z,8.57
2023-01-21T09:03:29.975Z,9.47
2023-01-21T09:04:32.327Z,9.63
2023-01-21T09:05:34.663Z,9.77
2023-01-21T09:06:36.859Z,8.80
2023-01-21T09:07:39.164Z,9.43
2023-01-21T09:08:42.217Z,9.10
2023-01-21T09:09:44.427Z,9.00
2023-01-21T09:11:01.654Z,9.00
2023-01-21T09:12:06.471Z,9.80
2023-01-21T09:13:09.981Z,10.20
2023-01-21T09:14:12.266Z,9.10
2023-01-21T09:15:14.632Z,9.30
2023-01-21T09:16:19.868Z,9.23
2023-01-21T09:17:22.967Z,9.37
2023-01-21T09:18:25.542Z,9.93
2023-01-21T09:19:27.776Z,9.20
2023-01-21T09:20:29.997Z,8.77
2023-01-21T09:21:34.999Z,9.03
2023-01-21T09:22:37.162Z,9.93
2023-01-21T09:23:40.568Z,9.67
2023-01-21T09:24:42.783Z,9.43
2023-01-21T09:25:45.006Z,9.87
2023-01-21T09:26:47.358Z,10.23
2023-01-21T09:27:49.587Z,9.63
2023-01-21T09:29:01.901Z,9.73
2023-01-21T09:30:04.427Z,9.60
2023-01-21T09:31:10.173Z,9.80
2023-01-21T09:32:12.391Z,9.90
2023-01-21T09:33:16.178Z,10.03
2023-01-21T09:34:18.415Z,10.17
2023-01-21T09:35:20.605Z,9.80
2023-01-21T09:36:25.972Z,10.33
2023-01-21T09:37:28.191Z,9.67
2023-01-21T09:38:31.069Z,9.43
2023-01-21T09:39:33.301Z,9.90
2023-01-21T09:40:35.877Z,10.07
2023-01-21T09:41:54.385Z,9.83
2023-01-21T09:42:58.203Z,9.40
2023-01-21T09:44:32.212Z,9.77
2023-01-21T09:45:34.623Z,9.80
2023-01-21T09:46:44.606Z,9.77
2023-01-21T09:47:50.215Z,10.20
2023-01-21T09:48:53.397Z,10.07
2023-01-21T09:50:04.124Z,9.63
2023-01-21T09:51:18.655Z,10.37
2023-01-21T09:52:46.745Z,8.90
2023-01-21T09:53:53.160Z,9.37
2023-01-21T09:54:57.327Z,9.40
2023-01-21T09:56:05.376Z,9.97
2023-01-21T09:57:26.220Z,9.77
2023-01-21T09:58:48.302Z,9.80
2023-01-21T10:00:17.283Z,10.43
2023-01-21T10:01:34.813Z,9.40
2023-01-21T10:02:45.082Z,8.97
2023-01-21T10:04:06.891Z,9.80
2023-01-21T10:05:34.087Z,9.43
2023-01-21T10:06:48.585Z,9.83
2023-01-21T10:08:02.071Z,10.13
2023-01-21T10:09:25.939Z,9.80
2023-01-21T10:10:48.410Z,10.20
2023-01-21T10:12:20.986Z,9.27
2023-01-21T10:13:42.786Z,9.10
2023-01-21T10:14:54.421Z,9.40
2023-01-21T10:16:20.209Z,9.80
2023-01-21T10:17:40.025Z,9.33
2023-01-21T10:18:46.586Z,9.40
2023-01-21T10:20:11.175Z,9.37
2023-01-21T10:21:28.736Z,9.57
2023-01-21T10:22:31.135Z,9.33
2023-01-21T10:23:43.523Z,9.03
2023-01-21T10:24:53.799Z,10.00
2023-01-21T10:25:59.452Z,9.40
2023-01-21T10:27:02.071Z,9.33
2023-01-21T10:28:13.573Z,9.60
2023-01-21T10:29:23.398Z,9.60
2023-01-21T10:30:35.203Z,9.17
2023-01-21T10:31:44.863Z,9.67
2023-01-21T10:32:52.139Z,9.83
2023-01-21T10:33:55.101Z,10.40
2023-01-21T10:34:57.930Z,10.30
2023-01-21T10:36:35.315Z,9.73
2023-01-21T10:37:51.068Z,9.17
2023-01-21T10:39:21.062Z,9.70
2023-01-21T10:40:44.465Z,9.37
2023-01-21T10:42:22.010Z,9.73
2023-01-21T10:43:46.884Z,9.20
2023-01-21T10:45:24.107Z,9.40
2023-01-21T10:47:08.390Z,9.20
2023-01-21T10:48:18.496Z,8.87
2023-01-21T10:49:53.963Z,8.50
2023-01-21T10:51:13.331Z,8.33
2023-01-21T10:52:39.653Z,9.33
2023-01-21T10:53:53.792Z,8.80
2023-01-21T10:55:05.290Z,9.17
2023-01-21T10:56:13.771Z,8.83
2023-01-21T10:57:24.741Z,9.23
2023-01-21T10:58:33.089Z,9.23
2023-01-21T10:59:38.278Z,8.63
2023-01-21T11:00:50.464Z,8.77
2023-01-21T11:02:05.997Z,8.27
2023-01-21T11:03:30.236Z,8.47
2023-01-21T11:04:33.810Z,8.73
2023-01-21T11:05:38.040Z,8.87
2023-01-21T11:06:40.835Z,8.70
2023-01-21T11:07:47.428Z,8.70
2023-01-21T11:08:54.498Z,8.97
2023-01-21T11:09:56.788Z,8.70
2023-01-21T11:10:59.965Z,8.07
2023-01-21T11:12:03.105Z,8.77
2023-01-21T11:13:05.938Z,8.80
2023-01-21T11:14:08.396Z,8.13
2023-01-21T11:15:15.302Z,8.07
2023-01-21T11:16:35.151Z,8.83
2023-01-21T11:17:40.424Z,8.30
2023-01-21T11:18:43.036Z,8.03
2023-01-21T11:19:58.376Z,8.30
2023-01-21T11:21:03.990Z,8.70
2023-01-21T11:22:29.114Z,8.50
2023-01-21T11:23:36.757Z,8.10
2023-01-21T11:24:44.651Z,8.03
2023-01-21T11:25:49.178Z,8.53
2023-01-21T11:26:53.699Z,8.37
2023-01-21T11:27:56.559Z,8.67
2023-01-21T11:29:19.686Z,8.77
2023-01-21T11:30:49.032Z,8.27
2023-01-21T11:32:05.509Z,8.47
2023-01-21T11:33:37.113Z,8.30
2023-01-21T11:34:48.160Z,8.10
2023-01-21T11:35:52.674Z,8.80
2023-01-21T11:37:05.476Z,8.60
2023-01-21T11:38:24.641Z,8.23
2023-01-21T11:39:30.183Z,8.63
2023-01-21T11:40:32.466Z,8.93
2023-01-21T11:41:35.044Z,8.97
2023-01-21T11:42:47.859Z,8.63
2023-01-21T11:43:55.677Z,8.40
2023-01-21T11:45:26.714Z,8.20
2023-01-21T11:46:40.774Z,8.17
2023-01-21T11:47:53.996Z,8.07
2023-01-21T11:49:17.761Z,8.70
2023-01-21T11:50:39.928Z,7.97
2023-01-21T11:51:44.829Z,8.20
2023-01-21T11:52:47.029Z,8.57
2023-01-21T11:53:49.356Z,8.20
2023-01-21T11:54:54.275Z,7.97
2023-01-21T11:56:02.981Z,8.50
2023-01-21T11:57:05.482Z,8.03
2023-01-21T11:58:17.809Z,8.23
2023-01-21T11:59:39.302Z,7.80
2023-01-21T12:00:47.073Z,7.83
2023-01-21T12:02:05.487Z,8.17
2023-01-21T12:03:15.088Z,7.87
2023-01-21T12:04:17.398Z,7.80
2023-01-21T12:05:29.583Z,7.80
2023-01-21T12:06:32.208Z,7.80
2023-01-21T12:07:42.582Z,8.03
2023-01-21T12:08:50.341Z,8.40
2023-01-21T12:10:30.374Z,8.43
2023-01-21T12:11:32.910Z,8.47
2023-01-21T12:12:59.482Z,8.63
2023-01-21T12:14:19.014Z,8.20
2023-01-21T12:15:39.843Z,8.10
2023-01-21T12:17:02.220Z,7.83
2023-01-21T12:18:29.375Z,8.53
2023-01-21T12:20:15.897Z,8.10
2023-01-21T12:21:29.613Z,8.30
2023-01-21T12:22:47.666Z,7.73
2023-01-21T12:24:08.417Z,7.80
2023-01-21T12:25:25.914Z,8.10
2023-01-21T12:26:45.655Z,8.20
2023-01-21T12:28:10.776Z,8.00
2023-01-21T12:29:49.853Z,8.17
2023-01-21T12:30:58.915Z,7.60
2023-01-21T12:32:16.676Z,7.63
2023-01-21T12:33:33.373Z,7.53
2023-01-21T12:34:42.426Z,7.97
2023-01-21T12:35:49.372Z,7.50
2023-01-21T12:36:57.170Z,7.10
2023-01-21T12:38:05.113Z,6.97
2023-01-21T12:39:32.214Z,7.20
2023-01-21T12:40:41.130Z,7.40
2023-01-21T12:41:47.139Z,6.97
2023-01-21T12:42:56.214Z,7.37
2023-01-21T12:44:26.223Z,7.90
2023-01-21T12:45:49.231Z,7.40
2023-01-21T12:46:59.608Z,7.00
2023-01-21T12:48:21.333Z,7.50
2023-01-21T12:49:53.138Z,7.20
2023-01-21T12:51:07.062Z,6.90
2023-01-21T12:52:19.034Z,6.63
2023-01-21T12:53:36.430Z,7.30
2023-01-21T12:54:56.185Z,7.33
2023-01-21T12:56:18.144Z,7.10
2023-01-21T12:57:56.608Z,7.20
2023-01-21T12:59:08.343Z,6.63
2023-01-21T13:00:24.826Z,7.30
2023-01-21T13:02:05.817Z,7.47
2023-01-21T13:03:32.937Z,6.77
2023-01-21T13:04:46.731Z,7.03
2023-01-21T13:05:58.409Z,7.03
2023-01-21T13:07:26.831Z,7.40
2023-01-21T13:08:38.652Z,7.70
2023-01-21T13:10:01.836Z,7.60
2023-01-21T13:11:19.507Z,8.20
2023-01-21T13:12:30.492Z,8.03
2023-01-21T13:13:38.440Z,8.00
2023-01-21T13:14:47.395Z,8.27
2023-01-21T13:15:55.414Z,8.30
2023-01-21T13:17:03.453Z,8.40
2023-01-21T13:18:15.102Z,8.67
2023-01-21T13:19:17.336Z,8.63
2023-01-21T13:20:21.410Z,8.70
2023-01-21T13:21:41.255Z,8.20
2023-01-21T13:23:05.060Z,8.17
2023-01-21T13:24:17.812Z,8.43
2023-01-21T13:25:33.407Z,8.43
2023-01-21T13:27:01.886Z,8.73
2023-01-21T13:28:39.606Z,8.40
2023-01-21T13:30:01.377Z,7.97
2023-01-21T13:31:32.400Z,8.63
2023-01-21T13:32:46.135Z,7.90
2023-01-21T13:34:00.707Z,8.70
2023-01-21T13:35:25.617Z,8.27
2023-01-21T13:36:39.838Z,8.23
2023-01-21T13:38:04.834Z,8.80
2023-01-21T13:39:32.375Z,8.67
2023-01-21T13:40:53.747Z,8.93
2023-01-21T13:42:21.425Z,8.60
2023-01-21T13:43:44.270Z,8.37
2023-01-21T13:45:02.688Z,8.93
2023-01-21T13:46:59.697Z,8.43
2023-01-21T13:48:26.954Z,8.27
2023-01-21T13:50:07.516Z,8.23
2023-01-21T13:51:18.733Z,8.10
2023-01-21T13:52:43.991Z,8.40
2023-01-21T13:53:46.193Z,8.37
2023-01-21T13:55:26.129Z,8.43
2023-01-21T13:56:43.524Z,7.77
2023-01-21T13:57:51.734Z,7.87
2023-01-21T13:59:01.931Z,7.73
2023-01-21T14:00:12.922Z,8.23
2023-01-21T14:01:39.690Z,8.70
2023-01-21T14:02:48.087Z,8.40
2023-01-21T14:04:18.057Z,7.70
2023-01-21T14:05:28.819Z,8.03
2023-01-21T14:06:53.309Z,7.50
2023-01-21T14:08:34.070Z,8.50
2023-01-21T14:09:42.500Z,8.20
2023-01-21T14:11:04.371Z,7.97
2023-01-21T14:12:20.586Z,8.13
2023-01-21T14:13:40.640Z,7.77
2023-01-21T14:15:11.006Z,7.93
2023-01-21T14:16:52.688Z,7.50
2023-01-21T14:18:29.990Z,7.47
2023-01-21T14:19:59.660Z,8.20
2023-01-21T14:21:42.458Z,7.67
2023-01-21T14:23:16.023Z,8.10
2023-01-21T14:24:38.860Z,7.50
2023-01-21T14:26:07.973Z,7.07
2023-01-21T14:27:17.930Z,7.70
2023-01-21T14:28:33.871Z,7.70
2023-01-21T14:29:47.978Z,8.10
2023-01-21T14:31:02.538Z,7.87
2023-01-21T14:32:14.125Z,7.90
2023-01-21T14:33:24.943Z,7.70
2023-01-21T14:34:39.035Z,7.73
2023-01-21T14:36:13.103Z,8.10
2023-01-21T14:37:25.808Z,7.33
2023-01-21T14:38:58.849Z,7.20
2023-01-21T14:40:17.065Z,7.83
2023-01-21T14:41:22.015Z,7.60
2023-01-21T14:42:42.319Z,7.90
2023-01-21T14:43:45.276Z,8.50
2023-01-21T14:44:50.076Z,8.10
2023-01-21T14:45:55.472Z,8.13
2023-01-21T14:47:16.108Z,8.30
2023-01-21T14:48:35.200Z,8.47
2023-01-21T14:49:43.400Z,8.33
2023-01-21T14:51:10.217Z,8.73
2023-01-21T14:52:17.761Z,8.37
2023-01-21T14:53:27.036Z,8.20
2023-01-21T14:54:29.597Z,8.20
2023-01-21T14:55:38.788Z,7.63
2023-01-21T14:57:01.685Z,7.10
2023-01-21T14:58:06.660Z,7.60
2023-01-21T14:59:33.956Z,7.97
2023-01-21T15:00:37.555Z,7.43
2023-01-21T15:01:43.762Z,7.20
2023-01-21T15:02:52.646Z,7.63
2023-01-21T15:03:56.667Z,7.77
2023-01-21T15:05:01.789Z,7.70
2023-01-21T15:06:09.384Z,8.43
2023-01-21T15:07:21.741Z,7.87
2023-01-21T15:08:28.080Z,7.50
2023-01-21T15:09:34.636Z,7.17
2023-01-21T15:10:40.431Z,7.40
2023-01-21T15:11:44.257Z,7.07